createdAt,value
2018-02-06T00:00:43.944Z,88.27
2018-02-06T00:03:11.526Z,88.23
2018-02-06T00:05:39.143Z,88.37
2018-02-06T00:08:07.052Z,88.31
2018-02-06T00:10:34.839Z,88.32
2018-02-06T00:13:02.492Z,88.32
2018-02-06T00:15:30.134Z,88.32
2018-02-06T00:17:58.879Z,88.39
2018-02-06T00:20:26.528Z,88.36
2018-02-06T00:22:54.165Z,88.39
2018-02-06T00:25:21.776Z,88.76
2018-02-06T00:27:49.420Z,88.59
2018-02-06T00:30:17.105Z,88.51
2018-02-06T00:32:44.865Z,88.42
2018-02-06T00:35:12.467Z,88.38
2018-02-06T00:37:40.077Z,88.33
2018-02-06T00:40:07.722Z,88.35
2018-02-06T00:42:35.343Z,88.42
2018-02-06T00:45:02.968Z,88.81
2018-02-06T00:47:30.617Z,88.78
2018-02-06T00:49:58.243Z,88.75
2018-02-06T00:52:25.853Z,88.62
2018-02-06T00:54:53.465Z,88.75
2018-02-06T00:57:21.391Z,88.57
2018-02-06T00:59:49.873Z,88.63
2018-02-06T01:02:17.491Z,88.62
2018-02-06T01:04:45.068Z,88.66
2018-02-06T01:07:12.734Z,88.65
2018-02-06T01:09:40.368Z,88.64
2018-02-06T01:12:08.030Z,88.59
2018-02-06T01:14:35.749Z,88.62
2018-02-06T01:17:03.412Z,88.77
2018-02-06T01:19:31.036Z,88.78
2018-02-06T01:21:58.944Z,88.65
2018-02-06T01:24:26.840Z,88.76
2018-02-06T01:26:54.463Z,88.85
2018-02-06T01:29:22.074Z,88.94
2018-02-06T01:31:49.733Z,88.94
2018-02-06T01:34:17.715Z,89.30
2018-02-06T01:36:45.361Z,89.38
2018-02-06T01:39:12.948Z,89.25
2018-02-06T01:41:40.599Z,89.12
2018-02-06T01:44:08.268Z,89.01
2018-02-06T01:46:35.871Z,89.06
2018-02-06T01:49:03.507Z,89.01
2018-02-06T01:51:31.151Z,88.99
2018-02-06T01:53:58.816Z,89.08
2018-02-06T01:56:27.539Z,89.17
2018-02-06T01:58:55.286Z,89.19
2018-02-06T02:01:28.422Z,89.30
2018-02-06T02:03:56.359Z,89.26
2018-02-06T02:06:24.388Z,89.09
2018-02-06T02:08:52.026Z,89.17
2018-02-06T02:11:19.634Z,89.33
2018-02-06T02:13:47.604Z,89.18
2018-02-06T02:16:15.606Z,89.10
2018-02-06T02:18:43.415Z,89.05
2018-02-06T02:21:10.991Z,88.92
2018-02-06T02:23:38.942Z,88.92
2018-02-06T02:26:06.525Z,88.91
2018-02-06T02:28:34.637Z,88.87
2018-02-06T02:31:02.266Z,89.16
2018-02-06T02:33:30.213Z,89.02
2018-02-06T02:35:58.246Z,89.02
2018-02-06T02:38:26.190Z,89.02
2018-02-06T02:40:53.772Z,88.95
2018-02-06T04:39:00.574Z,89.05
2018-02-06T04:41:28.256Z,89.25
2018-02-06T04:43:55.936Z,89.19
2018-02-06T04:46:23.599Z,89.14
2018-02-06T04:48:51.290Z,89.10
2018-02-06T04:51:18.894Z,89.06
2018-02-06T04:53:46.522Z,89.01
2018-02-06T04:56:14.138Z,89.05
2018-02-06T04:58:41.841Z,89.05
2018-02-06T05:01:09.430Z,89.00
2018-02-06T05:03:37.110Z,88.99
2018-02-06T05:06:04.991Z,89.18
2018-02-06T05:08:32.810Z,89.28
2018-02-06T05:11:00.525Z,89.28
2018-02-06T05:13:28.131Z,89.29
2018-02-06T05:15:55.786Z,89.17
2018-02-06T05:18:23.471Z,89.18
2018-02-06T05:20:51.996Z,89.14
2018-02-06T05:23:19.771Z,89.15
2018-02-06T05:25:47.438Z,89.09
2018-02-06T05:28:15.145Z,89.17
2018-02-06T05:30:42.844Z,89.24
2018-02-06T05:33:10.501Z,89.19
2018-02-06T05:35:56.740Z,89.21
2018-02-06T05:38:24.558Z,89.15
2018-02-06T05:40:52.283Z,89.09
2018-02-06T05:43:19.948Z,89.15
2018-02-06T05:45:47.545Z,89.46
2018-02-06T05:48:15.281Z,89.38
2018-02-06T05:50:42.919Z,89.25
2018-02-06T05:53:10.546Z,89.18
2018-02-06T05:55:38.643Z,89.21
2018-02-06T05:58:06.300Z,89.19
2018-02-06T06:00:33.938Z,89.17
2018-02-06T06:03:01.577Z,89.11
2018-02-06T06:05:32.942Z,89.00
2018-02-06T06:08:00.957Z,89.06
2018-02-06T06:10:28.918Z,88.95
2018-02-06T06:12:56.891Z,88.92
2018-02-06T06:15:24.531Z,88.96
2018-02-06T06:17:52.147Z,88.93
2018-02-06T06:20:19.798Z,88.89
2018-02-06T06:22:47.457Z,88.89
2018-02-06T06:25:15.123Z,88.92
2018-02-06T06:27:42.747Z,89.01
2018-02-06T06:30:10.423Z,88.97
2018-02-06T06:32:38.046Z,88.98
2018-02-06T06:35:05.722Z,89.05
2018-02-06T06:37:33.403Z,89.09
2018-02-06T06:40:01.021Z,89.23
2018-02-06T06:42:28.646Z,89.15
2018-02-06T06:44:56.322Z,89.14
2018-02-06T06:47:23.957Z,89.11
2018-02-06T06:49:51.632Z,89.09
2018-02-06T06:52:19.304Z,89.09
2018-02-06T06:54:47.015Z,89.05
2018-02-06T06:57:14.900Z,88.97
2018-02-06T06:59:42.576Z,88.86
2018-02-06T07:02:10.184Z,88.76
2018-02-06T07:04:37.849Z,88.67
2018-02-06T07:07:05.707Z,88.68
2018-02-06T07:09:33.372Z,88.68
2018-02-06T07:12:01.051Z,88.64
2018-02-06T07:14:28.802Z,88.74
2018-02-06T07:16:56.517Z,88.70
2018-02-06T07:19:24.201Z,88.69
2018-02-06T07:21:51.918Z,88.82
2018-02-06T07:24:19.616Z,88.99
2018-02-06T07:26:47.261Z,88.96
2018-02-06T07:29:15.244Z,89.09
2018-02-06T07:31:42.915Z,89.13
2018-02-06T07:34:11.346Z,89.18
2018-02-06T07:36:39.006Z,89.15
2018-02-06T07:39:06.590Z,89.15
2018-02-06T07:41:34.270Z,89.34
2018-02-06T07:44:02.246Z,89.40
2018-02-06T07:46:29.901Z,89.54
2018-02-06T07:48:57.537Z,89.59
2018-02-06T07:51:25.252Z,90.03
2018-02-06T07:53:52.874Z,90.00
2018-02-06T07:56:20.507Z,90.03
2018-02-06T07:58:48.139Z,89.90
2018-02-06T08:01:15.822Z,89.96
2018-02-06T08:03:43.477Z,90.04
2018-02-06T08:06:11.117Z,90.04
2018-02-06T08:08:38.761Z,90.06
2018-02-06T08:11:06.608Z,90.13
2018-02-06T08:13:34.269Z,90.25
2018-02-06T08:16:01.926Z,90.06
2018-02-06T08:18:29.813Z,89.93
2018-02-06T08:20:57.481Z,89.94
2018-02-06T08:23:25.104Z,89.88
2018-02-06T08:25:52.745Z,89.81
2018-02-06T08:28:20.431Z,89.52
2018-02-06T08:30:48.079Z,89.57
2018-02-06T08:33:15.735Z,89.68
2018-02-06T08:35:43.459Z,89.55
2018-02-06T08:38:11.065Z,89.56
2018-02-06T08:40:38.666Z,89.60
2018-02-06T08:43:06.340Z,89.42
2018-02-06T08:45:34.014Z,89.02
2018-02-06T08:48:01.658Z,89.00
2018-02-06T08:50:29.253Z,88.83
2018-02-06T08:52:56.888Z,88.79
2018-02-06T08:55:24.560Z,88.22
2018-02-06T08:57:52.178Z,88.03
2018-02-06T09:00:19.830Z,88.03
2018-02-06T09:02:47.522Z,88.08
2018-02-06T09:05:15.119Z,88.22
2018-02-06T09:07:42.825Z,87.92
2018-02-06T09:10:10.590Z,88.10
2018-02-06T09:12:38.185Z,88.21
2018-02-06T09:15:05.814Z,88.10
2018-02-06T09:17:33.459Z,87.66
2018-02-06T09:20:01.085Z,87.27
2018-02-06T09:22:28.730Z,87.15
2018-02-06T09:24:56.381Z,87.06
2018-02-06T09:27:24.085Z,86.77
2018-02-06T09:29:51.684Z,86.58
2018-02-06T09:32:19.326Z,87.12
2018-02-06T09:34:47.009Z,85.78
2018-02-06T09:37:14.647Z,84.86
2018-02-06T09:39:42.270Z,85.62
2018-02-06T09:42:10.076Z,84.92
2018-02-06T09:44:37.700Z,84.91
2018-02-06T09:47:05.344Z,84.43
2018-02-06T09:49:33.219Z,84.45
2018-02-06T09:52:00.794Z,84.83
2018-02-06T09:54:28.436Z,83.41
2018-02-06T09:56:56.062Z,82.75
2018-02-06T09:59:23.698Z,81.72
2018-02-06T10:01:51.278Z,81.97
2018-02-06T10:04:18.916Z,81.50
2018-02-06T10:06:46.583Z,81.48
2018-02-06T10:09:14.214Z,80.97
2018-02-06T10:11:41.813Z,80.43
2018-02-06T10:14:09.418Z,80.27
2018-02-06T10:16:37.034Z,78.96
2018-02-06T10:19:04.650Z,78.24
2018-02-06T10:21:32.286Z,76.13
2018-02-06T10:23:59.949Z,76.09
2018-02-06T10:26:27.596Z,77.09
2018-02-06T10:28:55.219Z,74.81
2018-02-06T10:31:22.886Z,74.61
2018-02-06T10:33:50.541Z,74.45
2018-02-06T10:36:18.140Z,74.11
2018-02-06T10:38:45.839Z,74.13
2018-02-06T10:41:13.568Z,72.17
2018-02-06T10:43:41.132Z,72.33
2018-02-06T10:46:08.738Z,70.61
2018-02-06T10:48:36.821Z,69.58
2018-02-06T10:51:04.717Z,69.98
2018-02-06T10:53:32.352Z,68.53
2018-02-06T10:56:00.009Z,69.08
2018-02-06T10:58:27.664Z,68.20
2018-02-06T11:00:55.339Z,68.40
2018-02-06T11:03:22.950Z,64.85
2018-02-06T11:05:50.849Z,66.64
2018-02-06T11:08:18.463Z,67.21
2018-02-06T11:10:46.137Z,65.77
2018-02-06T11:13:13.900Z,65.95
2018-02-06T11:15:41.553Z,66.71
2018-02-06T11:18:09.214Z,65.32
2018-02-06T11:20:36.843Z,65.51
2018-02-06T11:23:04.506Z,64.15
2018-02-06T11:25:32.147Z,62.16
2018-02-06T11:28:00.139Z,62.15
2018-02-06T11:30:27.851Z,62.30
2018-02-06T11:32:55.560Z,62.02
2018-02-06T11:35:23.525Z,63.21
2018-02-06T11:37:51.133Z,61.85
2018-02-06T11:40:18.721Z,61.49
2018-02-06T11:42:46.367Z,60.95
2018-02-06T11:45:14.006Z,61.52
2018-02-06T11:47:41.934Z,61.84
2018-02-06T11:50:09.577Z,62.45
2018-02-06T11:52:37.145Z,61.78
2018-02-06T11:55:04.744Z,61.77
2018-02-06T11:57:32.948Z,62.12
2018-02-06T12:00:02.030Z,62.77
2018-02-06T12:02:29.655Z,62.89
2018-02-06T12:04:57.274Z,63.04
2018-02-06T12:07:24.890Z,62.72
2018-02-06T12:09:52.519Z,62.44
2018-02-06T12:12:20.155Z,59.50
2018-02-06T12:14:47.787Z,60.49
2018-02-06T12:17:16.536Z,60.64
2018-02-06T12:19:44.135Z,59.87
2018-02-06T12:22:11.785Z,59.82
2018-02-06T12:27:55.568Z,59.78
2018-02-06T12:30:23.218Z,60.59
2018-02-06T12:32:50.858Z,62.47
2018-02-06T12:35:19.069Z,62.36
2018-02-06T12:37:46.697Z,62.41
2018-02-06T12:40:14.722Z,62.64
2018-02-06T12:42:42.405Z,62.40
2018-02-06T12:45:09.996Z,63.34
2018-02-06T12:47:37.736Z,63.54
2018-02-06T12:50:05.467Z,62.54
2018-02-06T12:52:33.061Z,61.71
2018-02-06T12:55:00.733Z,61.85
2018-02-06T12:57:28.435Z,60.38
2018-02-06T12:59:56.105Z,61.50
2018-02-06T13:02:24.130Z,60.97
2018-02-06T13:04:51.790Z,62.09
2018-02-06T13:07:19.432Z,60.82
2018-02-06T13:09:47.401Z,61.55
2018-02-06T13:12:15.051Z,61.67
2018-02-06T13:14:42.691Z,62.11
2018-02-06T13:17:10.670Z,60.81
2018-02-06T13:19:38.301Z,61.01
2018-02-06T13:22:05.953Z,61.66
2018-02-06T13:24:33.616Z,61.19
2018-02-06T13:27:01.205Z,61.62
2018-02-06T13:29:29.210Z,60.50
2018-02-06T13:31:56.823Z,59.13
2018-02-06T13:34:24.435Z,59.25
2018-02-06T13:36:56.984Z,59.63
2018-02-06T13:39:24.948Z,59.87
2018-02-06T13:41:52.636Z,60.52
2018-02-06T13:44:20.643Z,59.28
2018-02-06T13:46:48.269Z,59.06
2018-02-06T13:49:15.943Z,60.23
2018-02-06T13:51:43.604Z,62.00
2018-02-06T13:54:11.278Z,63.30
2018-02-06T13:56:38.906Z,62.42
2018-02-06T13:59:06.551Z,60.81
2018-02-06T14:01:34.249Z,60.67
2018-02-06T14:04:01.958Z,61.46
2018-02-06T14:06:29.816Z,62.58
2018-02-06T14:08:57.522Z,61.45
2018-02-06T14:11:25.660Z,61.88
2018-02-06T14:13:53.350Z,61.92
2018-02-06T14:16:20.955Z,61.04
2018-02-06T14:18:48.671Z,61.68
2018-02-06T14:21:16.307Z,61.79
2018-02-06T14:23:43.956Z,60.87
2018-02-06T14:26:11.814Z,60.71
2018-02-06T14:28:39.468Z,61.44
2018-02-06T14:31:07.191Z,61.64
2018-02-06T14:33:34.883Z,62.63
2018-02-06T14:36:02.652Z,61.09
2018-02-06T14:38:30.685Z,62.33
2018-02-06T14:40:58.836Z,62.25
2018-02-06T14:43:26.503Z,62.72
2018-02-06T14:45:54.236Z,62.41
2018-02-06T14:48:21.931Z,62.81
2018-02-06T14:50:49.616Z,62.91
2018-02-06T14:53:17.383Z,62.00
2018-02-06T14:55:45.036Z,61.18
2018-02-06T14:58:12.668Z,61.88
2018-02-06T15:00:40.336Z,61.79
2018-02-06T15:03:08.049Z,62.35
2018-02-06T15:05:36.064Z,62.66
2018-02-06T15:08:04.045Z,62.36
2018-02-06T15:10:31.648Z,62.47
2018-02-06T15:12:59.274Z,63.21
2018-02-06T15:15:26.919Z,63.79
2018-02-06T15:17:54.613Z,63.47
2018-02-06T15:20:22.272Z,62.63
2018-02-06T15:22:49.869Z,61.36
2018-02-06T15:25:18.384Z,60.99
2018-02-06T15:27:46.002Z,61.59
2018-02-06T15:30:13.642Z,61.72
2018-02-06T15:32:41.301Z,61.94
2018-02-06T15:35:08.898Z,62.27
2018-02-06T15:37:36.604Z,62.35
2018-02-06T15:40:04.663Z,60.86
2018-02-06T15:42:32.301Z,60.45
2018-02-06T15:44:59.988Z,62.16
2018-02-06T15:47:27.718Z,61.90
2018-02-06T15:49:55.327Z,60.94
2018-02-06T15:52:22.992Z,61.64
2018-02-06T15:54:50.738Z,61.37
2018-02-06T15:57:18.361Z,61.50
2018-02-06T15:59:47.258Z,61.97
2018-02-06T16:02:14.937Z,61.59
2018-02-06T16:04:42.975Z,61.81
2018-02-06T16:07:10.628Z,61.93
2018-02-06T16:09:38.279Z,62.84
2018-02-06T16:12:06.297Z,62.83
2018-02-06T16:14:33.996Z,63.03
2018-02-06T16:17:01.680Z,63.25
2018-02-06T16:19:29.354Z,63.36
2018-02-06T16:21:56.973Z,63.47
2018-02-06T16:24:24.912Z,64.01
2018-02-06T16:26:52.805Z,64.23
2018-02-06T16:29:20.401Z,64.42
2018-02-06T16:31:48.024Z,63.80
2018-02-06T16:34:15.650Z,63.76
2018-02-06T16:36:43.548Z,63.66
2018-02-06T16:39:11.236Z,63.42
2018-02-06T16:41:39.244Z,63.63
2018-02-06T16:44:07.188Z,64.12
2018-02-06T16:46:34.846Z,64.04
2018-02-06T16:49:02.476Z,64.16
2018-02-06T16:51:30.141Z,63.84
2018-02-06T16:53:57.743Z,63.97
2018-02-06T16:56:25.444Z,64.16
2018-02-06T16:58:53.007Z,64.26
2018-02-06T17:01:20.580Z,64.40
2018-02-06T17:03:48.189Z,63.98
2018-02-06T17:06:15.992Z,64.16
2018-02-06T17:08:43.577Z,64.20
2018-02-06T17:11:11.183Z,63.70
2018-02-06T17:13:39.195Z,64.13
2018-02-06T17:16:06.823Z,64.10
2018-02-06T17:18:34.747Z,63.96
2018-02-06T17:21:02.426Z,64.43
2018-02-06T17:23:30.097Z,64.39
2018-02-06T17:25:57.771Z,64.60
2018-02-06T17:28:25.467Z,64.63
2018-02-06T17:30:54.139Z,64.85
2018-02-06T17:33:21.760Z,64.64
2018-02-06T17:35:49.491Z,64.60
2018-02-06T17:38:17.134Z,64.28
2018-02-06T17:40:44.817Z,64.54
2018-02-06T17:43:12.464Z,64.44
2018-02-06T17:45:40.165Z,64.81
2018-02-06T17:48:07.890Z,64.96
2018-02-06T17:50:35.528Z,65.22
2018-02-06T17:53:03.198Z,65.62
2018-02-06T17:55:30.908Z,66.00
2018-02-06T17:57:58.669Z,66.19
2018-02-06T18:00:26.400Z,66.71
2018-02-06T18:02:54.412Z,66.87
2018-02-06T18:05:22.137Z,66.92
2018-02-06T18:07:49.818Z,66.83
2018-02-06T18:10:17.656Z,67.13
2018-02-06T18:12:45.322Z,67.04
2018-02-06T18:15:13.123Z,66.89
2018-02-06T18:17:40.728Z,66.99
2018-02-06T18:20:08.426Z,66.59
2018-02-06T18:22:36.426Z,66.62
2018-02-06T18:25:04.164Z,66.72
2018-02-06T18:27:31.901Z,66.56
2018-02-06T18:29:59.622Z,66.20
2018-02-06T18:32:27.277Z,66.34
2018-02-06T18:34:54.994Z,66.56
2018-02-06T18:37:22.683Z,66.69
2018-02-06T18:39:50.356Z,66.82
2018-02-06T18:42:18.009Z,66.86
2018-02-06T18:44:45.734Z,66.92
2018-02-06T18:47:13.369Z,67.04
2018-02-06T18:49:41.004Z,67.36
2018-02-06T18:52:08.720Z,67.40
2018-02-06T18:54:36.357Z,67.67
2018-02-06T18:57:04.198Z,67.85
2018-02-06T18:59:31.775Z,67.84
2018-02-06T19:01:59.727Z,68.00
2018-02-06T19:04:27.311Z,68.04
2018-02-06T19:06:54.958Z,67.98
2018-02-06T19:09:22.612Z,68.09
2018-02-06T19:11:50.233Z,68.11
2018-02-06T19:14:17.884Z,67.84
2018-02-06T19:16:45.521Z,67.66
2018-02-06T19:19:13.107Z,68.02
2018-02-06T19:21:40.778Z,68.37
2018-02-06T19:24:08.382Z,68.35
2018-02-06T19:26:36.043Z,68.59
2018-02-06T19:29:04.003Z,68.69
2018-02-06T19:31:31.667Z,69.14
2018-02-06T19:33:59.291Z,69.38
2018-02-06T19:36:26.954Z,69.49
2018-02-06T19:38:54.528Z,69.83
2018-02-06T19:41:22.172Z,70.08
2018-02-06T19:43:49.843Z,70.28
2018-02-06T19:46:17.427Z,70.32
2018-02-06T19:48:45.082Z,70.37
2018-02-06T19:51:12.740Z,70.39
2018-02-06T19:53:40.380Z,70.62
2018-02-06T19:56:08.034Z,70.79
2018-02-06T19:58:35.642Z,70.83
2018-02-06T20:01:03.331Z,70.63
2018-02-06T20:03:30.917Z,70.70
2018-02-06T20:05:58.857Z,70.99
2018-02-06T20:08:26.537Z,70.77
2018-02-06T20:10:54.230Z,70.79
2018-02-06T20:13:21.854Z,70.92
2018-02-06T20:15:49.455Z,70.63
2018-02-06T20:18:17.146Z,70.71
2018-02-06T20:20:44.928Z,70.73
2018-02-06T20:23:12.507Z,70.76
2018-02-06T20:25:40.109Z,70.84
2018-02-06T20:28:07.750Z,70.78
2018-02-06T20:30:35.443Z,70.68
2018-02-06T20:33:03.105Z,70.60
2018-02-06T20:35:30.726Z,70.63
2018-02-06T20:37:58.367Z,70.51
2018-02-06T20:40:26.001Z,70.72
2018-02-06T20:42:53.683Z,70.96
2018-02-06T20:45:21.383Z,71.02
2018-02-06T20:47:50.343Z,70.93
2018-02-06T20:50:17.952Z,70.90
2018-02-06T20:52:49.523Z,70.89
2018-02-06T20:55:18.458Z,70.89
2018-02-06T20:57:46.115Z,70.88
2018-02-06T21:00:13.717Z,71.01
2018-02-06T21:02:41.453Z,70.97
2018-02-06T21:05:09.415Z,70.97
2018-02-06T21:07:37.145Z,71.04
2018-02-06T21:10:04.831Z,71.08
2018-02-06T21:12:32.487Z,71.15
2018-02-06T21:15:00.086Z,71.12
2018-02-06T21:17:27.686Z,71.13
2018-02-06T21:19:55.332Z,71.22
2018-02-06T21:22:22.998Z,71.40
2018-02-06T21:24:50.647Z,71.72
2018-02-06T21:27:18.283Z,72.09
2018-02-06T21:29:45.973Z,72.15
2018-02-06T21:32:13.584Z,72.53
2018-02-06T21:34:41.254Z,72.77
2018-02-06T21:37:08.889Z,73.34
2018-02-06T21:39:36.519Z,73.86
2018-02-06T21:42:04.236Z,74.18
2018-02-06T21:44:31.855Z,74.35
2018-02-06T21:46:59.827Z,74.40
2018-02-06T21:49:27.461Z,74.48
2018-02-06T21:51:55.077Z,74.91
2018-02-06T21:54:23.098Z,74.90
2018-02-06T21:56:51.362Z,74.99
2018-02-06T21:59:19.027Z,75.04
2018-02-06T22:01:46.659Z,74.90
2018-02-06T22:04:14.301Z,74.92
2018-02-06T22:06:42.361Z,74.98
2018-02-06T22:09:09.937Z,74.97
2018-02-06T22:11:37.513Z,75.07
2018-02-06T22:14:05.188Z,75.18
2018-02-06T22:16:32.758Z,75.18
2018-02-06T22:19:00.356Z,75.40
2018-02-06T22:21:27.985Z,75.52
2018-02-06T22:23:55.580Z,75.63
2018-02-06T22:26:23.245Z,75.74
2018-02-06T22:28:50.949Z,76.00
2018-02-06T22:31:18.535Z,76.16
2018-02-06T22:33:46.169Z,76.41
2018-02-06T22:36:13.858Z,76.78
2018-02-06T22:38:41.527Z,76.84
2018-02-06T22:41:09.218Z,77.20
2018-02-06T22:43:36.824Z,77.31
2018-02-06T22:46:04.389Z,77.51
2018-02-06T22:48:32.055Z,77.50
2018-02-06T22:50:59.786Z,77.62
2018-02-06T22:53:27.464Z,77.46
2018-02-06T22:55:55.078Z,77.42
2018-02-06T22:58:23.042Z,77.35
2018-02-06T23:00:50.979Z,77.34
2018-02-06T23:03:18.558Z,77.44
2018-02-06T23:05:46.173Z,77.47
2018-02-06T23:08:13.784Z,77.44
2018-02-06T23:10:41.377Z,77.40
2018-02-06T23:13:09.068Z,77.41
2018-02-06T23:15:36.673Z,77.40
2018-02-06T23:18:04.347Z,77.39
2018-02-06T23:20:31.972Z,77.41
2018-02-06T23:22:59.567Z,77.52
2018-02-06T23:25:27.183Z,77.77
2018-02-06T23:27:55.094Z,77.80
2018-02-06T23:30:22.781Z,77.79
2018-02-06T23:32:56.659Z,77.91
2018-02-06T23:35:26.045Z,77.91
